sensor_id;sensor_type;location;lat;lon;timestamp;temperature;humidity
64501;DHT22;50874;24.150;-110.320;2023-03-17T00:00:45;30.50;59.80
64501;DHT22;50874;24.150;-110.320;2023-03-17T00:03:22;30.30;59.70
64501;DHT22;50874;24.150;-110.320;2023-03-17T00:05:54;30.10;60.30
64501;DHT22;50874;24.150;-110.320;2023-03-17T00:08:30;30.00;59.70
64501;DHT22;50874;24.150;-110.320;2023-03-17T00:10:57;30.20;60.00
64501;DHT22;50874;24.150;-110.320;2023-03-17T00:13:24;30.30;59.40
64501;DHT22;50874;24.150;-110.320;2023-03-17T00:15:59;29.90;58.80
64501;DHT22;50874;24.150;-110.320;2023-03-17T00:18:27;30.10;59.10
64501;DHT22;50874;24.150;-110.320;2023-03-17T00:20:57;30.20;59.00
64501;DHT22;50874;24.150;-110.320;2023-03-17T00:23:25;29.90;59.00
64501;DHT22;50874;24.150;-110.320;2023-03-17T00:25:51;29.80;59.40
64501;DHT22;50874;24.150;-110.320;2023-03-17T00:28:21;29.90;59.40
64501;DHT22;50874;24.150;-110.320;2023-03-17T00:30:59;29.90;58.70
64501;DHT22;50874;24.150;-110.320;2023-03-17T00:33:29;29.40;59.30
64501;DHT22;50874;24.150;-110.320;2023-03-17T00:35:58;29.50;59.90
64501;DHT22;50874;24.150;-110.320;2023-03-17T00:38:24;29.70;59.50
64501;DHT22;50874;24.150;-110.320;2023-03-17T00:40:51;29.80;60.00
64501;DHT22;50874;24.150;-110.320;2023-03-17T00:43:17;29.70;59.70
64501;DHT22;50874;24.150;-110.320;2023-03-17T00:45:44;29.70;59.60
64501;DHT22;50874;24.150;-110.320;2023-03-17T00:48:19;29.70;59.70
64501;DHT22;50874;24.150;-110.320;2023-03-17T00:50:47;29.60;59.90
64501;DHT22;50874;24.150;-110.320;2023-03-17T00:53:19;29.40;59.60
64501;DHT22;50874;24.150;-110.320;2023-03-17T00:55:48;29.40;60.00
64501;DHT22;50874;24.150;-110.320;2023-03-17T01:00:48;29.30;60.30
64501;DHT22;50874;24.150;-110.320;2023-03-17T01:03:15;29.20;61.10
64501;DHT22;50874;24.150;-110.320;2023-03-17T01:05:41;29.10;61.60
64501;DHT22;50874;24.150;-110.320;2023-03-17T01:08:08;28.90;61.80
64501;DHT22;50874;24.150;-110.320;2023-03-17T01:10:35;28.60;63.20
64501;DHT22;50874;24.150;-110.320;2023-03-17T01:13:03;28.50;62.20
64501;DHT22;50874;24.150;-110.320;2023-03-17T01:15:30;28.50;62.40
64501;DHT22;50874;24.150;-110.320;2023-03-17T01:17:58;28.50;62.30
64501;DHT22;50874;24.150;-110.320;2023-03-17T01:20:32;28.40;63.60
64501;DHT22;50874;24.150;-110.320;2023-03-17T01:23:00;28.20;65.30
64501;DHT22;50874;24.150;-110.320;2023-03-17T01:25:27;28.20;66.20
64501;DHT22;50874;24.150;-110.320;2023-03-17T01:27:55;28.00;66.80
64501;DHT22;50874;24.150;-110.320;2023-03-17T01:30:29;27.80;68.10
64501;DHT22;50874;24.150;-110.320;2023-03-17T01:32:57;27.50;75.70
64501;DHT22;50874;24.150;-110.320;2023-03-17T01:35:26;27.30;77.40
64501;DHT22;50874;24.150;-110.320;2023-03-17T01:37:54;27.20;78.50
64501;DHT22;50874;24.150;-110.320;2023-03-17T01:40:27;27.00;78.90
64501;DHT22;50874;24.150;-110.320;2023-03-17T01:54:27;26.70;81.00
64501;DHT22;50874;24.150;-110.320;2023-03-17T01:56:59;26.60;79.50
64501;DHT22;50874;24.150;-110.320;2023-03-17T01:59:33;26.50;74.70
64501;DHT22;50874;24.150;-110.320;2023-03-17T02:02:05;26.50;66.50
64501;DHT22;50874;24.150;-110.320;2023-03-17T02:04:33;26.50;68.00
64501;DHT22;50874;24.150;-110.320;2023-03-17T02:07:01;26.50;76.80
64501;DHT22;50874;24.150;-110.320;2023-03-17T02:09:31;26.50;77.70
64501;DHT22;50874;24.150;-110.320;2023-03-17T02:12:00;26.40;84.40
64501;DHT22;50874;24.150;-110.320;2023-03-17T02:14:27;26.30;87.70
64501;DHT22;50874;24.150;-110.320;2023-03-17T02:16:55;26.20;89.60
64501;DHT22;50874;24.150;-110.320;2023-03-17T02:19:22;26.10;90.50
64501;DHT22;50874;24.150;-110.320;2023-03-17T02:21:54;26.10;91.10
64501;DHT22;50874;24.150;-110.320;2023-03-17T02:27:05;26.10;92.50
64501;DHT22;50874;24.150;-110.320;2023-03-17T02:29:34;25.90;93.10
64501;DHT22;50874;24.150;-110.320;2023-03-17T02:32:03;25.70;94.30
64501;DHT22;50874;24.150;-110.320;2023-03-17T02:34:31;25.50;95.70
64501;DHT22;50874;24.150;-110.320;2023-03-17T02:36:58;25.40;97.00
64501;DHT22;50874;24.150;-110.320;2023-03-17T02:39:25;25.30;98.40
64501;DHT22;50874;24.150;-110.320;2023-03-17T02:41:52;25.20;99.80
64501;DHT22;50874;24.150;-110.320;2023-03-17T02:44:19;25.10;99.90
64501;DHT22;50874;24.150;-110.320;2023-03-17T02:46:45;25.20;99.90
64501;DHT22;50874;24.150;-110.320;2023-03-17T02:49:13;25.10;99.90
64501;DHT22;50874;24.150;-110.320;2023-03-17T02:51:40;25.10;99.90
64501;DHT22;50874;24.150;-110.320;2023-03-17T02:54:07;25.00;99.90
64501;DHT22;50874;24.150;-110.320;2023-03-17T02:56:33;25.20;99.90
64501;DHT22;50874;24.150;-110.320;2023-03-17T02:59:00;25.30;99.90
64501;DHT22;50874;24.150;-110.320;2023-03-17T03:01:27;25.20;99.90
64501;DHT22;50874;24.150;-110.320;2023-03-17T03:03:54;25.30;99.90
64501;DHT22;50874;24.150;-110.320;2023-03-17T03:06:20;25.30;99.90
64501;DHT22;50874;24.150;-110.320;2023-03-17T03:08:49;25.30;99.90
64501;DHT22;50874;24.150;-110.320;2023-03-17T03:11:16;25.30;99.90
64501;DHT22;50874;24.150;-110.320;2023-03-17T03:13:43;25.20;99.90
64501;DHT22;50874;24.150;-110.320;2023-03-17T03:16:09;25.20;99.90
64501;DHT22;50874;24.150;-110.320;2023-03-17T03:18:36;25.20;99.90
64501;DHT22;50874;24.150;-110.320;2023-03-17T03:21:03;25.10;99.90
64501;DHT22;50874;24.150;-110.320;2023-03-17T03:23:30;25.00;99.90
64501;DHT22;50874;24.150;-110.320;2023-03-17T03:25:57;25.00;99.90
64501;DHT22;50874;24.150;-110.320;2023-03-17T03:28:23;25.00;99.90
64501;DHT22;50874;24.150;-110.320;2023-03-17T03:30:50;24.90;99.90
64501;DHT22;50874;24.150;-110.320;2023-03-17T03:33:16;24.80;99.90
64501;DHT22;50874;24.150;-110.320;2023-03-17T03:35:43;24.80;99.90
64501;DHT22;50874;24.150;-110.320;2023-03-17T03:38:11;24.80;99.90
64501;DHT22;50874;24.150;-110.320;2023-03-17T03:40:38;24.70;99.90
64501;DHT22;50874;24.150;-110.320;2023-03-17T03:43:05;24.60;99.90
64501;DHT22;50874;24.150;-110.320;2023-03-17T03:45:32;24.50;99.90
64501;DHT22;50874;24.150;-110.320;2023-03-17T03:47:59;24.40;99.90
64501;DHT22;50874;24.150;-110.320;2023-03-17T03:50:25;24.40;99.90
64501;DHT22;50874;24.150;-110.320;2023-03-17T03:52:52;24.30;99.90
64501;DHT22;50874;24.150;-110.320;2023-03-17T03:55:18;24.20;99.90
64501;DHT22;50874;24.150;-110.320;2023-03-17T03:57:45;24.20;99.90
64501;DHT22;50874;24.150;-110.320;2023-03-17T04:00:12;24.20;99.90
64501;DHT22;50874;24.150;-110.320;2023-03-17T04:02:40;24.20;99.90
64501;DHT22;50874;24.150;-110.320;2023-03-17T04:05:08;24.20;99.90
64501;DHT22;50874;24.150;-110.320;2023-03-17T04:07:35;24.20;99.90
64501;DHT22;50874;24.150;-110.320;2023-03-17T04:10:03;24.10;99.90
64501;DHT22;50874;24.150;-110.320;2023-03-17T04:12:29;24.10;99.90
64501;DHT22;50874;24.150;-110.320;2023-03-17T04:14:56;24.10;99.90
64501;DHT22;50874;24.150;-110.320;2023-03-17T04:17:22;23.90;99.90
64501;DHT22;50874;24.150;-110.320;2023-03-17T04:19:49;23.90;99.90
64501;DHT22;50874;24.150;-110.320;2023-03-17T04:22:16;23.90;99.90
64501;DHT22;50874;24.150;-110.320;2023-03-17T04:24:42;23.90;99.90
64501;DHT22;50874;24.150;-110.320;2023-03-17T04:27:09;23.80;99.90
64501;DHT22;50874;24.150;-110.320;2023-03-17T04:29:36;23.80;99.90
64501;DHT22;50874;24.150;-110.320;2023-03-17T04:32:02;23.70;99.90
64501;DHT22;50874;24.150;-110.320;2023-03-17T04:34:29;23.70;99.90
64501;DHT22;50874;24.150;-110.320;2023-03-17T04:36:55;23.60;99.90
64501;DHT22;50874;24.150;-110.320;2023-03-17T04:39:22;23.50;99.90
64501;DHT22;50874;24.150;-110.320;2023-03-17T04:41:49;23.50;99.90
64501;DHT22;50874;24.150;-110.320;2023-03-17T04:44:15;23.40;99.90
64501;DHT22;50874;24.150;-110.320;2023-03-17T04:46:42;23.40;99.90
64501;DHT22;50874;24.150;-110.320;2023-03-17T04:49:08;23.30;99.90
64501;DHT22;50874;24.150;-110.320;2023-03-17T04:51:35;23.20;99.90
64501;DHT22;50874;24.150;-110.320;2023-03-17T04:54:02;23.10;99.90
64501;DHT22;50874;24.150;-110.320;2023-03-17T04:56:28;23.00;99.90
64501;DHT22;50874;24.150;-110.320;2023-03-17T04:58:55;23.00;99.90
64501;DHT22;50874;24.150;-110.320;2023-03-17T05:01:21;23.00;99.90
64501;DHT22;50874;24.150;-110.320;2023-03-17T05:03:48;22.90;99.90
64501;DHT22;50874;24.150;-110.320;2023-03-17T05:06:15;22.80;99.90
64501;DHT22;50874;24.150;-110.320;2023-03-17T05:08:42;22.70;99.90
64501;DHT22;50874;24.150;-110.320;2023-03-17T05:11:12;22.70;99.90
64501;DHT22;50874;24.150;-110.320;2023-03-17T05:13:39;22.60;99.90
64501;DHT22;50874;24.150;-110.320;2023-03-17T05:16:07;22.40;99.90
64501;DHT22;50874;24.150;-110.320;2023-03-17T05:18:34;22.50;99.90
64501;DHT22;50874;24.150;-110.320;2023-03-17T05:21:01;22.40;99.90
64501;DHT22;50874;24.150;-110.320;2023-03-17T05:23:27;22.40;99.90
64501;DHT22;50874;24.150;-110.320;2023-03-17T05:25:55;22.30;99.90
64501;DHT22;50874;24.150;-110.320;2023-03-17T05:28:22;22.30;99.90
64501;DHT22;50874;24.150;-110.320;2023-03-17T05:30:49;22.30;99.90
64501;DHT22;50874;24.150;-110.320;2023-03-17T05:33:16;22.20;99.90
64501;DHT22;50874;24.150;-110.320;2023-03-17T05:35:43;22.20;99.90
64501;DHT22;50874;24.150;-110.320;2023-03-17T05:38:11;22.20;99.90
64501;DHT22;50874;24.150;-110.320;2023-03-17T05:40:37;22.10;99.90
64501;DHT22;50874;24.150;-110.320;2023-03-17T05:43:05;22.10;99.90
64501;DHT22;50874;24.150;-110.320;2023-03-17T05:45:32;22.10;99.90
64501;DHT22;50874;24.150;-110.320;2023-03-17T05:47:58;22.10;99.90
64501;DHT22;50874;24.150;-110.320;2023-03-17T05:50:25;22.10;99.90
64501;DHT22;50874;24.150;-110.320;2023-03-17T05:52:52;22.20;99.90
64501;DHT22;50874;24.150;-110.320;2023-03-17T05:55:19;22.20;99.90
64501;DHT22;50874;24.150;-110.320;2023-03-17T05:57:46;22.00;99.90
64501;DHT22;50874;24.150;-110.320;2023-03-17T06:00:13;22.00;99.90
64501;DHT22;50874;24.150;-110.320;2023-03-17T06:02:41;22.00;99.90
64501;DHT22;50874;24.150;-110.320;2023-03-17T06:05:08;21.80;99.90
64501;DHT22;50874;24.150;-110.320;2023-03-17T06:07:35;21.70;99.90
64501;DHT22;50874;24.150;-110.320;2023-03-17T06:10:02;21.50;99.90
64501;DHT22;50874;24.150;-110.320;2023-03-17T06:12:28;21.50;99.90
64501;DHT22;50874;24.150;-110.320;2023-03-17T06:14:55;21.50;99.90
64501;DHT22;50874;24.150;-110.320;2023-03-17T06:17:21;21.30;99.90
64501;DHT22;50874;24.150;-110.320;2023-03-17T06:19:48;21.30;99.90
64501;DHT22;50874;24.150;-110.320;2023-03-17T06:22:15;21.10;99.90
64501;DHT22;50874;24.150;-110.320;2023-03-17T06:24:42;21.10;99.90
64501;DHT22;50874;24.150;-110.320;2023-03-17T06:27:08;21.00;99.90
64501;DHT22;50874;24.150;-110.320;2023-03-17T06:29:36;21.00;99.90
64501;DHT22;50874;24.150;-110.320;2023-03-17T06:32:03;20.90;99.90
64501;DHT22;50874;24.150;-110.320;2023-03-17T06:34:29;20.90;99.90
64501;DHT22;50874;24.150;-110.320;2023-03-17T06:36:56;20.70;99.90
64501;DHT22;50874;24.150;-110.320;2023-03-17T06:39:24;20.60;99.90
64501;DHT22;50874;24.150;-110.320;2023-03-17T06:41:51;20.50;99.90
64501;DHT22;50874;24.150;-110.320;2023-03-17T06:44:18;20.40;99.90
64501;DHT22;50874;24.150;-110.320;2023-03-17T06:46:45;20.30;99.90
64501;DHT22;50874;24.150;-110.320;2023-03-17T06:49:11;20.10;99.90
64501;DHT22;50874;24.150;-110.320;2023-03-17T06:51:39;20.00;99.90
64501;DHT22;50874;24.150;-110.320;2023-03-17T06:54:06;19.90;99.90
64501;DHT22;50874;24.150;-110.320;2023-03-17T06:56:33;20.00;99.90
64501;DHT22;50874;24.150;-110.320;2023-03-17T06:59:00;20.10;99.90
64501;DHT22;50874;24.150;-110.320;2023-03-17T07:01:27;20.10;99.90
64501;DHT22;50874;24.150;-110.320;2023-03-17T07:03:53;20.10;99.90
64501;DHT22;50874;24.150;-110.320;2023-03-17T07:06:21;20.10;99.90
64501;DHT22;50874;24.150;-110.320;2023-03-17T07:08:48;20.10;99.90
64501;DHT22;50874;24.150;-110.320;2023-03-17T07:11:15;20.10;99.90
64501;DHT22;50874;24.150;-110.320;2023-03-17T07:13:42;20.00;99.90
64501;DHT22;50874;24.150;-110.320;2023-03-17T07:16:11;19.70;99.90
64501;DHT22;50874;24.150;-110.320;2023-03-17T07:18:39;19.60;99.90
64501;DHT22;50874;24.150;-110.320;2023-03-17T07:21:05;19.40;99.90
64501;DHT22;50874;24.150;-110.320;2023-03-17T07:23:31;19.30;99.90
64501;DHT22;50874;24.150;-110.320;2023-03-17T07:25:58;19.20;99.90
64501;DHT22;50874;24.150;-110.320;2023-03-17T07:28:24;19.10;99.90
64501;DHT22;50874;24.150;-110.320;2023-03-17T07:30:51;19.20;99.90
64501;DHT22;50874;24.150;-110.320;2023-03-17T07:33:18;19.30;99.90
64501;DHT22;50874;24.150;-110.320;2023-03-17T07:35:47;19.30;99.90
64501;DHT22;50874;24.150;-110.320;2023-03-17T07:38:15;19.30;99.90
64501;DHT22;50874;24.150;-110.320;2023-03-17T07:40:44;19.30;99.90
64501;DHT22;50874;24.150;-110.320;2023-03-17T07:43:12;19.30;99.90
64501;DHT22;50874;24.150;-110.320;2023-03-17T07:45:39;19.30;99.90
64501;DHT22;50874;24.150;-110.320;2023-03-17T07:48:06;19.20;99.90
64501;DHT22;50874;24.150;-110.320;2023-03-17T07:50:34;19.20;99.90
64501;DHT22;50874;24.150;-110.320;2023-03-17T07:53:01;19.00;99.90
64501;DHT22;50874;24.150;-110.320;2023-03-17T07:55:29;19.00;99.90
64501;DHT22;50874;24.150;-110.320;2023-03-17T07:57:55;18.90;99.90
64501;DHT22;50874;24.150;-110.320;2023-03-17T08:00:22;18.80;99.90
64501;DHT22;50874;24.150;-110.320;2023-03-17T08:02:49;18.70;99.90
64501;DHT22;50874;24.150;-110.320;2023-03-17T08:05:16;18.70;99.90
64501;DHT22;50874;24.150;-110.320;2023-03-17T08:07:43;18.60;99.90
64501;DHT22;50874;24.150;-110.320;2023-03-17T08:10:11;18.60;99.90
64501;DHT22;50874;24.150;-110.320;2023-03-17T08:12:40;18.60;99.90
64501;DHT22;50874;24.150;-110.320;2023-03-17T08:15:08;18.60;99.90
64501;DHT22;50874;24.150;-110.320;2023-03-17T08:17:35;18.70;99.90
64501;DHT22;50874;24.150;-110.320;2023-03-17T08:20:02;18.70;99.90
64501;DHT22;50874;24.150;-110.320;2023-03-17T08:22:30;18.70;99.90
64501;DHT22;50874;24.150;-110.320;2023-03-17T08:24:56;18.70;99.90
64501;DHT22;50874;24.150;-110.320;2023-03-17T08:27:23;18.70;99.90
64501;DHT22;50874;24.150;-110.320;2023-03-17T08:29:50;18.60;99.90
64501;DHT22;50874;24.150;-110.320;2023-03-17T08:32:16;18.70;99.90
64501;DHT22;50874;24.150;-110.320;2023-03-17T08:34:43;18.70;99.90
64501;DHT22;50874;24.150;-110.320;2023-03-17T08:37:11;18.70;99.90
64501;DHT22;50874;24.150;-110.320;2023-03-17T08:39:37;18.70;99.90
64501;DHT22;50874;24.150;-110.320;2023-03-17T08:42:04;18.70;99.90
64501;DHT22;50874;24.150;-110.320;2023-03-17T08:44:31;18.80;99.90
64501;DHT22;50874;24.150;-110.320;2023-03-17T08:46:59;18.70;99.90
64501;DHT22;50874;24.150;-110.320;2023-03-17T08:49:26;18.70;99.90
64501;DHT22;50874;24.150;-110.320;2023-03-17T08:51:53;18.70;99.90
64501;DHT22;50874;24.150;-110.320;2023-03-17T08:54:19;18.70;99.90
64501;DHT22;50874;24.150;-110.320;2023-03-17T08:56:46;18.60;99.90
64501;DHT22;50874;24.150;-110.320;2023-03-17T08:59:13;18.60;99.90
64501;DHT22;50874;24.150;-110.320;2023-03-17T09:01:39;18.60;99.90
64501;DHT22;50874;24.150;-110.320;2023-03-17T09:04:06;18.60;99.90
64501;DHT22;50874;24.150;-110.320;2023-03-17T09:06:33;18.50;99.90
64501;DHT22;50874;24.150;-110.320;2023-03-17T09:09:00;18.40;99.90
64501;DHT22;50874;24.150;-110.320;2023-03-17T09:11:28;18.30;99.90
64501;DHT22;50874;24.150;-110.320;2023-03-17T09:13:57;18.20;99.90
64501;DHT22;50874;24.150;-110.320;2023-03-17T09:16:25;18.10;99.90
64501;DHT22;50874;24.150;-110.320;2023-03-17T09:18:53;18.00;99.90
64501;DHT22;50874;24.150;-110.320;2023-03-17T09:21:20;17.90;99.90
64501;DHT22;50874;24.150;-110.320;2023-03-17T09:23:47;17.70;99.90
64501;DHT22;50874;24.150;-110.320;2023-03-17T09:26:13;17.60;99.90
64501;DHT22;50874;24.150;-110.320;2023-03-17T09:28:40;17.60;99.90
64501;DHT22;50874;24.150;-110.320;2023-03-17T09:31:07;17.60;99.90
64501;DHT22;50874;24.150;-110.320;2023-03-17T09:33:40;17.70;99.90
64501;DHT22;50874;24.150;-110.320;2023-03-17T09:36:08;17.60;99.90
64501;DHT22;50874;24.150;-110.320;2023-03-17T09:38:34;17.50;99.90
64501;DHT22;50874;24.150;-110.320;2023-03-17T09:49:12;17.60;99.90
64501;DHT22;50874;24.150;-110.320;2023-03-17T09:51:40;17.50;99.90
64501;DHT22;50874;24.150;-110.320;2023-03-17T09:54:41;17.50;99.90
64501;DHT22;50874;24.150;-110.320;2023-03-17T09:57:36;17.40;99.90
64501;DHT22;50874;24.150;-110.320;2023-03-17T10:00:16;17.30;99.90
64501;DHT22;50874;24.150;-110.320;2023-03-17T10:02:44;17.20;99.90
64501;DHT22;50874;24.150;-110.320;2023-03-17T10:05:19;17.20;99.90
64501;DHT22;50874;24.150;-110.320;2023-03-17T10:07:57;17.20;99.90
64501;DHT22;50874;24.150;-110.320;2023-03-17T10:10:44;17.20;99.90
64501;DHT22;50874;24.150;-110.320;2023-03-17T10:18:25;17.40;99.90
64501;DHT22;50874;24.150;-110.320;2023-03-17T10:21:03;17.40;99.90
64501;DHT22;50874;24.150;-110.320;2023-03-17T10:23:35;17.40;99.90
64501;DHT22;50874;24.150;-110.320;2023-03-17T10:28:52;17.40;99.90
64501;DHT22;50874;24.150;-110.320;2023-03-17T10:31:32;17.30;99.90
64501;DHT22;50874;24.150;-110.320;2023-03-17T10:34:30;17.20;99.90
64501;DHT22;50874;24.150;-110.320;2023-03-17T10:37:03;17.10;99.90
64501;DHT22;50874;24.150;-110.320;2023-03-17T10:39:30;17.10;99.90
64501;DHT22;50874;24.150;-110.320;2023-03-17T10:44:53;16.90;99.90
64501;DHT22;50874;24.150;-110.320;2023-03-17T10:47:34;16.90;99.90
64501;DHT22;50874;24.150;-110.320;2023-03-17T10:50:29;16.90;99.90
64501;DHT22;50874;24.150;-110.320;2023-03-17T10:55:39;16.70;99.90
64501;DHT22;50874;24.150;-110.320;2023-03-17T10:58:13;16.70;99.90
64501;DHT22;50874;24.150;-110.320;2023-03-17T11:00:59;16.80;99.90
64501;DHT22;50874;24.150;-110.320;2023-03-17T11:03:31;16.80;99.90
64501;DHT22;50874;24.150;-110.320;2023-03-17T11:06:06;16.80;99.90
64501;DHT22;50874;24.150;-110.320;2023-03-17T11:08:41;16.80;99.90
64501;DHT22;50874;24.150;-110.320;2023-03-17T11:11:20;16.90;99.90
64501;DHT22;50874;24.150;-110.320;2023-03-17T11:13:47;16.80;99.90
64501;DHT22;50874;24.150;-110.320;2023-03-17T11:16:23;16.80;99.90
64501;DHT22;50874;24.150;-110.320;2023-03-17T11:18:57;16.80;99.90
64501;DHT22;50874;24.150;-110.320;2023-03-17T11:24:24;16.80;99.90
64501;DHT22;50874;24.150;-110.320;2023-03-17T11:27:11;16.70;99.90
64501;DHT22;50874;24.150;-110.320;2023-03-17T11:38:12;16.50;99.90
64501;DHT22;50874;24.150;-110.320;2023-03-17T11:46:28;16.40;99.90
64501;DHT22;50874;24.150;-110.320;2023-03-17T11:49:19;16.50;99.90
64501;DHT22;50874;24.150;-110.320;2023-03-17T11:56:56;16.50;99.90
64501;DHT22;50874;24.150;-110.320;2023-03-17T12:04:53;16.50;99.90
64501;DHT22;50874;24.150;-110.320;2023-03-17T12:07:45;16.40;99.90
64501;DHT22;50874;24.150;-110.320;2023-03-17T12:10:22;16.40;99.90
64501;DHT22;50874;24.150;-110.320;2023-03-17T12:16:43;16.40;99.90
64501;DHT22;50874;24.150;-110.320;2023-03-17T12:21:31;16.40;99.90
64501;DHT22;50874;24.150;-110.320;2023-03-17T12:24:18;16.30;99.90
64501;DHT22;50874;24.150;-110.320;2023-03-17T12:29:45;16.20;99.90
64501;DHT22;50874;24.150;-110.320;2023-03-17T12:34:57;16.10;99.90
64501;DHT22;50874;24.150;-110.320;2023-03-17T12:37:26;16.10;99.90
64501;DHT22;50874;24.150;-110.320;2023-03-17T12:40:04;16.10;99.90
64501;DHT22;50874;24.150;-110.320;2023-03-17T12:42:50;15.90;99.90
64501;DHT22;50874;24.150;-110.320;2023-03-17T12:47:59;15.90;99.90
64501;DHT22;50874;24.150;-110.320;2023-03-17T12:55:53;15.90;99.90
64501;DHT22;50874;24.150;-110.320;2023-03-17T12:58:33;15.80;99.90
64501;DHT22;50874;24.150;-110.320;2023-03-17T13:01:13;15.70;99.90
64501;DHT22;50874;24.150;-110.320;2023-03-17T13:04:03;15.70;99.90
64501;DHT22;50874;24.150;-110.320;2023-03-17T13:06:39;15.80;99.90
64501;DHT22;50874;24.150;-110.320;2023-03-17T13:09:28;15.70;99.90
64501;DHT22;50874;24.150;-110.320;2023-03-17T13:11:55;15.80;99.90
64501;DHT22;50874;24.150;-110.320;2023-03-17T13:14:44;15.80;99.90
64501;DHT22;50874;24.150;-110.320;2023-03-17T13:20:12;16.00;99.90
64501;DHT22;50874;24.150;-110.320;2023-03-17T13:30:41;16.10;99.90
64501;DHT22;50874;24.150;-110.320;2023-03-17T13:36:15;16.00;99.90
64501;DHT22;50874;24.150;-110.320;2023-03-17T13:47:26;16.00;99.90
64501;DHT22;50874;24.150;-110.320;2023-03-17T13:49:59;16.00;99.90
64501;DHT22;50874;24.150;-110.320;2023-03-17T13:52:37;16.00;99.90
64501;DHT22;50874;24.150;-110.320;2023-03-17T13:56:02;16.10;99.90
64501;DHT22;50874;24.150;-110.320;2023-03-17T14:00:40;16.20;99.90
64501;DHT22;50874;24.150;-110.320;2023-03-17T14:03:28;16.30;99.90
64501;DHT22;50874;24.150;-110.320;2023-03-17T14:05:55;16.40;99.90
64501;DHT22;50874;24.150;-110.320;2023-03-17T14:08:34;16.50;99.90
64501;DHT22;50874;24.150;-110.320;2023-03-17T14:11:14;16.60;99.90
64501;DHT22;50874;24.150;-110.320;2023-03-17T14:13:51;16.80;99.90
64501;DHT22;50874;24.150;-110.320;2023-03-17T14:16:31;17.10;99.90
64501;DHT22;50874;24.150;-110.320;2023-03-17T14:19:21;17.70;99.90
64501;DHT22;50874;24.150;-110.320;2023-03-17T14:21:48;18.40;99.90
64501;DHT22;50874;24.150;-110.320;2023-03-17T14:24:23;19.20;99.90
64501;DHT22;50874;24.150;-110.320;2023-03-17T14:26:51;20.00;99.90
64501;DHT22;50874;24.150;-110.320;2023-03-17T14:29:30;20.70;99.90
64501;DHT22;50874;24.150;-110.320;2023-03-17T14:32:09;21.50;99.90
64501;DHT22;50874;24.150;-110.320;2023-03-17T14:34:44;22.30;99.90
64501;DHT22;50874;24.150;-110.320;2023-03-17T14:37:14;22.90;99.90
64501;DHT22;50874;24.150;-110.320;2023-03-17T14:39:47;23.40;99.50
64501;DHT22;50874;24.150;-110.320;2023-03-17T14:42:24;23.90;97.90
64501;DHT22;50874;24.150;-110.320;2023-03-17T14:45:02;24.30;96.80
64501;DHT22;50874;24.150;-110.320;2023-03-17T14:47:36;24.70;95.70
64501;DHT22;50874;24.150;-110.320;2023-03-17T14:50:21;25.10;95.40
64501;DHT22;50874;24.150;-110.320;2023-03-17T14:52:49;25.50;95.40
64501;DHT22;50874;24.150;-110.320;2023-03-17T14:55:16;26.10;94.50
64501;DHT22;50874;24.150;-110.320;2023-03-17T14:57:51;26.50;93.40
64501;DHT22;50874;24.150;-110.320;2023-03-17T15:02:58;27.30;92.60
64501;DHT22;50874;24.150;-110.320;2023-03-17T15:05:38;27.60;92.60
64501;DHT22;50874;24.150;-110.320;2023-03-17T15:08:36;27.90;91.60
64501;DHT22;50874;24.150;-110.320;2023-03-17T15:11:06;28.20;91.00
64501;DHT22;50874;24.150;-110.320;2023-03-17T15:13:36;28.40;90.30
64501;DHT22;50874;24.150;-110.320;2023-03-17T15:16:19;28.60;88.60
64501;DHT22;50874;24.150;-110.320;2023-03-17T15:19:06;28.80;87.30
64501;DHT22;50874;24.150;-110.320;2023-03-17T15:21:38;28.90;85.30
64501;DHT22;50874;24.150;-110.320;2023-03-17T15:24:37;28.90;84.50
64501;DHT22;50874;24.150;-110.320;2023-03-17T15:29:32;29.70;81.50
64501;DHT22;50874;24.150;-110.320;2023-03-17T15:32:20;29.80;81.20
64501;DHT22;50874;24.150;-110.320;2023-03-17T15:34:50;29.90;81.30
64501;DHT22;50874;24.150;-110.320;2023-03-17T15:37:20;29.80;80.70
64501;DHT22;50874;24.150;-110.320;2023-03-17T15:39:48;30.10;79.30
64501;DHT22;50874;24.150;-110.320;2023-03-17T15:42:16;30.40;78.60
64501;DHT22;50874;24.150;-110.320;2023-03-17T15:44:43;30.60;77.00
64501;DHT22;50874;24.150;-110.320;2023-03-17T15:47:20;30.80;75.30
64501;DHT22;50874;24.150;-110.320;2023-03-17T15:49:48;30.80;75.00
64501;DHT22;50874;24.150;-110.320;2023-03-17T15:52:21;31.00;74.40
64501;DHT22;50874;24.150;-110.320;2023-03-17T15:54:52;31.40;72.70
64501;DHT22;50874;24.150;-110.320;2023-03-17T15:57:19;31.50;71.70
64501;DHT22;50874;24.150;-110.320;2023-03-17T15:59:45;31.60;71.10
64501;DHT22;50874;24.150;-110.320;2023-03-17T16:02:33;31.80;70.50
64501;DHT22;50874;24.150;-110.320;2023-03-17T16:05:01;31.90;70.00
64501;DHT22;50874;24.150;-110.320;2023-03-17T16:07:28;31.80;69.40
64501;DHT22;50874;24.150;-110.320;2023-03-17T16:09:56;32.10;68.30
64501;DHT22;50874;24.150;-110.320;2023-03-17T16:12:23;32.50;67.60
64501;DHT22;50874;24.150;-110.320;2023-03-17T16:14:50;32.90;66.20
64501;DHT22;50874;24.150;-110.320;2023-03-17T16:19:46;32.90;65.10
64501;DHT22;50874;24.150;-110.320;2023-03-17T16:22:36;33.10;65.30
64501;DHT22;50874;24.150;-110.320;2023-03-17T16:25:27;33.00;65.80
64501;DHT22;50874;24.150;-110.320;2023-03-17T16:27:59;33.20;64.60
64501;DHT22;50874;24.150;-110.320;2023-03-17T16:30:32;33.20;64.30
64501;DHT22;50874;24.150;-110.320;2023-03-17T16:33:23;33.40;64.30
64501;DHT22;50874;24.150;-110.320;2023-03-17T16:35:55;33.60;64.20
64501;DHT22;50874;24.150;-110.320;2023-03-17T16:38:24;33.80;64.40
64501;DHT22;50874;24.150;-110.320;2023-03-17T16:41:08;33.70;64.20
64501;DHT22;50874;24.150;-110.320;2023-03-17T16:43:36;33.60;64.10
64501;DHT22;50874;24.150;-110.320;2023-03-17T16:46:04;34.00;63.00
64501;DHT22;50874;24.150;-110.320;2023-03-17T16:48:31;34.20;62.50
64501;DHT22;50874;24.150;-110.320;2023-03-17T16:50:58;33.80;63.80
64501;DHT22;50874;24.150;-110.320;2023-03-17T16:53:25;33.80;63.20
64501;DHT22;50874;24.150;-110.320;2023-03-17T16:55:53;33.60;63.40
64501;DHT22;50874;24.150;-110.320;2023-03-17T17:01:22;33.70;63.30
64501;DHT22;50874;24.150;-110.320;2023-03-17T17:03:50;34.10;62.80
64501;DHT22;50874;24.150;-110.320;2023-03-17T17:09:21;35.10;61.30
64501;DHT22;50874;24.150;-110.320;2023-03-17T17:11:48;35.70;60.30